Lake Sherwood, Missouri
Current Conditions -  °F | °C
As of 1:15 PM on Tuesday 21 Oct 2014 (Local Time) from KFYG Reporting Station
Clear Clear  
Wind Chill: 66°   Ceiling: Unl
Heat Index: 66°   Visibility: 10mi
Dew Point: 45°   Wind: 8mph
Humidity: 46%   Direction: 360°N
Pressure: 30.11"   Gusts: NA
Location:  38.6485°N, 91.0773°W
Report Text: KFYG 211815Z AUTO 36007KT 330V050 10SM CLR 19/07 A3011 RMK AO2
Loading
Personal Weather Stations






























Interactive Weather Map New forecast layout! Learn more

10-Day Weather Forecast

Advertisements
Track Severe Weather on mobile